createdAt,value
2023-05-09T00:02:01.326Z,17.10
2023-05-09T00:04:29.364Z,16.80
2023-05-09T00:06:57.234Z,16.90
2023-05-09T00:09:25.475Z,17.30
2023-05-09T00:11:53.138Z,17.10
2023-05-09T00:14:20.798Z,17.00
2023-05-09T00:16:48.492Z,17.10
2023-05-09T00:19:16.109Z,16.60
2023-05-09T00:21:43.728Z,17.40
2023-05-09T00:24:11.369Z,16.80
2023-05-09T00:26:39.087Z,17.30
2023-05-09T00:29:06.994Z,17.30
2023-05-09T00:31:34.733Z,17.60
2023-05-09T00:34:02.383Z,18.80
2023-05-09T00:36:32.897Z,18.40
2023-05-09T00:39:00.539Z,18.60
2023-05-09T00:41:28.222Z,18.70
2023-05-09T00:43:55.843Z,18.30
2023-05-09T00:46:24.007Z,18.30
2023-05-09T00:48:52.462Z,19.10
2023-05-09T00:51:21.295Z,19.20
2023-05-09T00:53:49.166Z,19.70
2023-05-09T00:56:17.158Z,20.30
2023-05-09T00:58:45.334Z,19.70
2023-05-09T01:01:12.951Z,20.80
2023-05-09T01:03:41.810Z,20.10
2023-05-09T01:06:38.127Z,20.00
2023-05-09T01:09:28.556Z,20.10
2023-05-09T01:12:22.327Z,20.90
2023-05-09T01:15:15.331Z,21.00
2023-05-09T01:17:58.566Z,21.40
2023-05-09T01:20:35.821Z,21.00
2023-05-09T01:23:16.007Z,21.80
2023-05-09T01:26:02.026Z,22.40
2023-05-09T01:28:35.749Z,23.00
2023-05-09T01:31:05.655Z,22.00
2023-05-09T01:33:36.495Z,21.50
2023-05-09T01:36:08.514Z,21.90
2023-05-09T01:38:38.576Z,22.90
2023-05-09T01:41:09.485Z,22.90
2023-05-09T01:43:38.850Z,23.40
2023-05-09T01:46:08.101Z,24.30
2023-05-09T01:48:37.981Z,24.30
2023-05-09T01:51:07.779Z,24.10
2023-05-09T01:53:36.269Z,24.10
2023-05-09T01:56:05.600Z,25.00
2023-05-09T01:58:34.329Z,24.40
2023-05-09T02:01:03.460Z,24.70
2023-05-09T02:03:33.976Z,26.10
2023-05-09T02:06:03.840Z,25.00
2023-05-09T02:08:32.867Z,24.40
2023-05-09T02:11:00.684Z,24.40
2023-05-09T02:13:28.541Z,25.00
2023-05-09T02:15:57.063Z,26.00
2023-05-09T02:18:24.787Z,25.60
2023-05-09T02:20:52.538Z,24.40
2023-05-09T02:23:20.940Z,23.90
2023-05-09T02:25:48.838Z,25.20
2023-05-09T02:28:19.426Z,24.10
2023-05-09T02:30:49.873Z,24.60
2023-05-09T02:33:18.195Z,23.90
2023-05-09T02:35:46.760Z,24.40
2023-05-09T02:38:15.668Z,24.50
2023-05-09T02:40:44.497Z,24.70
2023-05-09T02:43:12.404Z,23.80
2023-05-09T02:45:40.224Z,24.40
2023-05-09T02:48:09.228Z,24.00
2023-05-09T02:50:42.914Z,25.30
2023-05-09T02:53:10.865Z,24.10
2023-05-09T02:55:38.530Z,24.10
2023-05-09T02:58:14.209Z,23.60
2023-05-09T03:00:43.128Z,23.50
2023-05-09T03:03:11.433Z,24.50
2023-05-09T03:05:39.188Z,24.20
2023-05-09T03:08:06.945Z,24.20
2023-05-09T03:10:34.765Z,25.10
2023-05-09T03:13:02.495Z,23.70
2023-05-09T03:15:30.267Z,24.60
2023-05-09T03:17:58.043Z,25.90
2023-05-09T03:20:27.020Z,26.10
2023-05-09T03:22:54.772Z,25.70
2023-05-09T03:25:22.590Z,25.30
2023-05-09T03:27:50.322Z,25.80
2023-05-09T03:30:18.813Z,26.70
2023-05-09T03:32:46.497Z,25.80
2023-05-09T03:35:14.398Z,25.30
2023-05-09T03:37:42.107Z,26.10
2023-05-09T03:40:10.231Z,26.70
2023-05-09T03:42:37.864Z,25.70
2023-05-09T03:45:05.813Z,26.60
2023-05-09T03:47:33.594Z,26.30
2023-05-09T03:50:01.275Z,26.80
2023-05-09T03:52:29.558Z,26.80
2023-05-09T03:54:57.492Z,26.00
2023-05-09T03:57:25.143Z,26.60
2023-05-09T03:59:52.841Z,26.30
2023-05-09T04:02:20.779Z,25.80
2023-05-09T04:04:49.971Z,25.80
2023-05-09T04:07:17.684Z,25.80
2023-05-09T04:09:45.392Z,26.70
2023-05-09T04:12:13.128Z,24.50
2023-05-09T04:14:40.863Z,25.90
2023-05-09T04:17:08.618Z,26.10
2023-05-09T04:19:36.322Z,24.80
2023-05-09T04:22:03.931Z,24.40
2023-05-09T04:24:31.637Z,25.10
2023-05-09T04:26:59.655Z,21.00
2023-05-09T04:29:27.594Z,21.50
2023-05-09T04:31:55.810Z,18.50
2023-05-09T04:34:24.813Z,18.40
2023-05-09T04:36:53.114Z,16.40
2023-05-09T04:39:20.900Z,15.30
2023-05-09T04:41:49.863Z,15.70
2023-05-09T04:44:18.640Z,15.90
2023-05-09T04:46:46.880Z,15.50
2023-05-09T04:49:14.581Z,15.30
2023-05-09T04:51:42.268Z,15.30
2023-05-09T04:54:10.558Z,15.90
2023-05-09T04:56:38.172Z,15.40
2023-05-09T04:59:05.894Z,15.40
2023-05-09T05:01:33.639Z,15.50
2023-05-09T05:04:01.351Z,14.20
2023-05-09T05:06:28.976Z,14.70
2023-05-09T05:08:56.673Z,14.60
2023-05-09T05:11:24.269Z,14.90
2023-05-09T05:13:51.989Z,14.60
2023-05-09T05:16:19.645Z,14.50
2023-05-09T05:18:47.242Z,14.70
2023-05-09T05:21:16.651Z,13.70
2023-05-09T05:23:44.496Z,13.70
2023-05-09T05:26:12.354Z,13.70
2023-05-09T05:28:40.138Z,13.20
2023-05-09T05:31:07.803Z,12.60
2023-05-09T05:33:35.524Z,12.80
2023-05-09T05:36:03.384Z,11.40
2023-05-09T05:38:31.285Z,11.40
2023-05-09T05:40:59.594Z,10.80
2023-05-09T05:43:27.262Z,10.30
2023-05-09T05:45:55.064Z,10.60
2023-05-09T05:48:22.802Z,10.20
2023-05-09T05:50:50.436Z,10.30
2023-05-09T05:53:18.055Z,9.70
2023-05-09T05:55:46.888Z,10.00
2023-05-09T05:58:14.945Z,10.00
2023-05-09T06:00:42.542Z,10.20
2023-05-09T06:03:14.208Z,8.50
2023-05-09T06:05:44.361Z,8.10
2023-05-09T06:08:11.980Z,7.90
2023-05-09T06:10:40.186Z,7.70
2023-05-09T06:13:07.867Z,7.50
2023-05-09T06:15:36.666Z,7.30
2023-05-09T06:18:04.478Z,7.30
2023-05-09T06:20:32.736Z,7.30
2023-05-09T06:23:00.555Z,6.90
2023-05-09T06:25:28.385Z,5.40
2023-05-09T06:28:13.101Z,5.80
2023-05-09T06:30:40.980Z,6.10
2023-05-09T06:33:08.664Z,5.10
2023-05-09T06:35:36.350Z,4.30
2023-05-09T06:38:04.004Z,4.40
2023-05-09T06:40:31.876Z,3.80
2023-05-09T06:42:59.664Z,4.50
2023-05-09T06:45:27.437Z,3.90
2023-05-09T06:47:55.235Z,3.70
2023-05-09T06:50:23.008Z,3.60
2023-05-09T06:52:50.680Z,3.50
2023-05-09T06:55:18.576Z,3.10
2023-05-09T06:57:46.261Z,3.30
2023-05-09T07:00:14.882Z,2.90
2023-05-09T07:02:43.296Z,3.20
2023-05-09T07:05:13.063Z,2.70
2023-05-09T07:07:41.052Z,2.20
2023-05-09T07:10:11.824Z,2.30
2023-05-09T07:12:40.904Z,2.20
2023-05-09T07:15:09.517Z,2.40
2023-05-09T07:17:37.375Z,2.40
2023-05-09T07:20:06.269Z,2.30
2023-05-09T07:22:36.994Z,2.10
2023-05-09T07:25:08.718Z,1.60
2023-05-09T07:27:37.121Z,1.70
2023-05-09T07:30:06.396Z,1.80
2023-05-09T07:32:36.644Z,1.80
2023-05-09T07:35:04.637Z,1.70
2023-05-09T07:37:32.364Z,1.80
2023-05-09T07:40:00.643Z,2.00
2023-05-09T07:42:30.463Z,1.80
2023-05-09T07:44:59.259Z,2.00
2023-05-09T07:47:27.305Z,2.10
2023-05-09T07:49:55.523Z,1.90
2023-05-09T07:52:23.664Z,1.70
2023-05-09T07:54:51.349Z,1.70
2023-05-09T07:57:19.372Z,1.80
2023-05-09T07:59:47.422Z,2.00
2023-05-09T08:02:15.252Z,1.80
2023-05-09T08:04:43.883Z,2.10
2023-05-09T08:07:12.006Z,1.80
2023-05-09T08:09:39.650Z,1.70
2023-05-09T08:12:07.780Z,1.90
2023-05-09T08:14:35.729Z,1.80
2023-05-09T08:17:03.406Z,1.70
2023-05-09T08:19:31.115Z,1.90
2023-05-09T08:21:58.877Z,1.80
2023-05-09T08:24:26.696Z,1.90
2023-05-09T08:26:54.639Z,2.10
2023-05-09T08:29:22.320Z,1.90
2023-05-09T08:31:51.483Z,2.00
2023-05-09T08:34:21.115Z,1.90
2023-05-09T08:36:48.811Z,1.80
2023-05-09T08:39:16.380Z,2.30
2023-05-09T08:41:44.466Z,2.00
2023-05-09T08:44:13.201Z,2.10
2023-05-09T08:46:44.669Z,1.80
2023-05-09T08:49:17.706Z,2.10
2023-05-09T08:51:48.142Z,1.80
2023-05-09T08:54:16.527Z,2.00
2023-05-09T08:56:44.416Z,1.90
2023-05-09T08:59:13.225Z,1.90
2023-05-09T09:01:41.180Z,1.80
2023-05-09T09:04:11.644Z,1.80
2023-05-09T09:06:40.145Z,1.70
2023-05-09T09:09:09.167Z,1.70
2023-05-09T09:11:40.621Z,1.90
2023-05-09T09:14:15.483Z,1.80
2023-05-09T09:16:47.551Z,1.70
2023-05-09T09:19:18.038Z,1.90
2023-05-09T09:21:51.216Z,1.90
2023-05-09T09:24:22.668Z,1.90
2023-05-09T09:26:51.580Z,1.50
2023-05-09T09:29:23.651Z,1.80
2023-05-09T09:31:55.192Z,1.80
2023-05-09T09:34:24.129Z,1.80
2023-05-09T09:36:53.388Z,1.80
2023-05-09T09:39:22.048Z,1.90
2023-05-09T09:41:50.006Z,1.90
2023-05-09T09:44:20.102Z,1.80
2023-05-09T09:46:50.470Z,1.80
2023-05-09T09:49:23.193Z,1.70
2023-05-09T09:51:56.115Z,1.80
2023-05-09T09:54:27.582Z,1.90
2023-05-09T09:56:56.540Z,1.80
2023-05-09T09:59:26.056Z,1.80
2023-05-09T10:01:53.871Z,1.80
2023-05-09T10:04:21.941Z,1.80
2023-05-09T10:07:14.366Z,1.70
2023-05-09T10:09:43.985Z,1.80
2023-05-09T10:12:12.388Z,1.80
2023-05-09T10:14:59.195Z,1.70
2023-05-09T10:17:38.266Z,1.80
2023-05-09T10:20:21.457Z,1.70
2023-05-09T10:23:11.992Z,1.80
2023-05-09T10:25:47.418Z,1.80
2023-05-09T10:28:18.409Z,1.80
2023-05-09T10:31:10.328Z,1.80
2023-05-09T10:33:43.620Z,2.00
2023-05-09T10:36:12.201Z,1.80
2023-05-09T10:38:40.637Z,1.90
2023-05-09T10:41:10.548Z,2.00
2023-05-09T10:43:38.573Z,1.90
2023-05-09T10:46:07.094Z,1.70
2023-05-09T10:48:36.484Z,1.90
2023-05-09T10:51:05.707Z,1.90
2023-05-09T10:53:49.029Z,1.90
2023-05-09T10:56:29.949Z,1.70
2023-05-09T10:58:58.959Z,1.90
2023-05-09T11:01:37.023Z,1.60
2023-05-09T11:04:14.740Z,1.90
2023-05-09T11:06:46.526Z,1.60
2023-05-09T11:09:25.880Z,1.70
2023-05-09T11:12:06.119Z,1.60
2023-05-09T11:14:47.512Z,2.00
2023-05-09T11:20:27.778Z,1.90
2023-05-09T11:24:16.311Z,2.10
2023-05-09T11:26:47.654Z,1.90
2023-05-09T11:29:14.862Z,1.70
2023-05-09T11:32:04.326Z,1.90
2023-05-09T11:34:30.815Z,1.80
2023-05-09T11:37:09.201Z,1.80
2023-05-09T11:39:54.834Z,1.70
2023-05-09T11:42:23.510Z,1.80
2023-05-09T11:44:50.840Z,1.80
2023-05-09T11:47:17.694Z,1.60
2023-05-09T11:49:44.542Z,1.70
2023-05-09T11:52:10.837Z,1.70
2023-05-09T11:54:40.252Z,1.80
2023-05-09T11:57:07.217Z,1.60
2023-05-09T11:59:34.822Z,1.90
2023-05-09T12:02:05.414Z,1.80
2023-05-09T12:04:32.638Z,1.80
2023-05-09T12:07:01.276Z,1.70
2023-05-09T12:09:32.373Z,2.00
2023-05-09T12:12:00.246Z,1.90
2023-05-09T12:14:31.155Z,2.00
2023-05-09T12:16:58.119Z,1.80
2023-05-09T12:19:25.465Z,1.80
2023-05-09T12:21:59.258Z,1.80
2023-05-09T12:24:27.280Z,1.70
2023-05-09T12:26:57.720Z,1.80
2023-05-09T12:29:24.912Z,1.70
2023-05-09T12:31:54.935Z,1.80
2023-05-09T12:34:21.544Z,1.70
2023-05-09T12:36:50.173Z,1.80
2023-05-09T12:39:23.920Z,1.70
2023-05-09T12:42:01.225Z,1.60
2023-05-09T12:44:28.732Z,1.70
2023-05-09T12:46:57.467Z,1.80
2023-05-09T12:49:24.964Z,1.70
2023-05-09T12:51:53.047Z,1.60
2023-05-09T12:54:23.503Z,1.80
2023-05-09T12:56:56.128Z,1.50
2023-05-09T12:59:24.502Z,1.90
2023-05-09T13:01:59.142Z,1.70
2023-05-09T13:04:27.370Z,1.60
2023-05-09T13:06:56.883Z,1.40
2023-05-09T13:09:24.965Z,1.90
2023-05-09T13:11:51.882Z,1.80
2023-05-09T13:14:20.991Z,1.60
2023-05-09T13:19:33.587Z,1.60
2023-05-09T13:22:02.012Z,1.90
2023-05-09T13:24:29.868Z,1.90
2023-05-09T13:26:57.517Z,2.00
2023-05-09T13:29:25.307Z,1.80
2023-05-09T13:39:02.835Z,1.80
2023-05-09T13:41:31.585Z,1.80
2023-05-09T13:43:57.966Z,2.00
2023-05-09T13:46:24.286Z,1.80
2023-05-09T13:48:50.644Z,1.70
2023-05-09T13:51:17.010Z,1.70
2023-05-09T13:53:43.313Z,1.70
2023-05-09T13:56:09.696Z,1.70
2023-05-09T13:58:36.236Z,1.60
2023-05-09T14:01:02.672Z,1.80
2023-05-09T14:03:29.058Z,1.90
2023-05-09T14:05:55.547Z,2.00
2023-05-09T14:08:22.029Z,2.20
2023-05-09T14:10:48.316Z,1.90
2023-05-09T14:13:15.084Z,2.10
2023-05-09T14:15:41.399Z,1.70
2023-05-09T14:18:07.779Z,1.80
2023-05-09T14:20:37.083Z,1.70
2023-05-09T14:23:03.387Z,2.00
2023-05-09T14:25:29.613Z,2.00
2023-05-09T14:27:55.900Z,1.90
2023-05-09T14:30:22.368Z,1.70
2023-05-09T14:32:48.768Z,1.70
2023-05-09T14:35:15.104Z,1.70
2023-05-09T14:37:41.792Z,1.50
2023-05-09T14:40:09.038Z,1.80
2023-05-09T14:42:36.211Z,1.70
2023-05-09T14:45:02.672Z,1.70
2023-05-09T14:47:29.039Z,1.80
2023-05-09T14:49:55.401Z,1.90
2023-05-09T14:52:21.859Z,1.90
2023-05-09T14:54:48.251Z,1.80
2023-05-09T14:57:14.918Z,1.80
2023-05-09T14:59:41.705Z,1.90
2023-05-09T15:02:08.078Z,1.80
2023-05-09T15:04:34.694Z,1.80
2023-05-09T15:07:01.209Z,2.20
2023-05-09T15:09:28.660Z,2.00
2023-05-09T15:11:55.231Z,2.90
2023-05-09T15:14:21.660Z,3.70
2023-05-09T15:16:48.116Z,1.80
2023-05-09T15:19:14.519Z,1.80
2023-05-09T15:21:40.837Z,2.00
2023-05-09T15:24:07.244Z,1.80
2023-05-09T15:26:39.518Z,2.00
2023-05-09T15:29:13.890Z,1.90
2023-05-09T15:31:40.635Z,2.10
2023-05-09T15:34:06.870Z,1.80
2023-05-09T15:36:33.564Z,1.80
2023-05-09T15:39:00.736Z,2.10
2023-05-09T15:41:27.983Z,2.10
2023-05-09T15:43:54.425Z,2.00
2023-05-09T15:46:21.191Z,1.90
2023-05-09T15:48:47.520Z,2.00
2023-05-09T15:51:13.892Z,1.70
2023-05-09T15:53:40.252Z,2.10
2023-05-09T15:56:08.551Z,1.70
2023-05-09T15:58:35.228Z,2.00
2023-05-09T16:01:05.124Z,1.90
2023-05-09T16:03:32.064Z,1.90
2023-05-09T16:05:59.168Z,1.90
2023-05-09T16:08:25.681Z,1.90
2023-05-09T16:10:52.404Z,1.90
2023-05-09T16:13:18.758Z,1.80
2023-05-09T16:15:47.143Z,2.00
2023-05-09T16:18:13.419Z,2.10
2023-05-09T16:20:41.332Z,1.90
2023-05-09T16:23:07.767Z,1.90
2023-05-09T16:25:35.446Z,2.10
2023-05-09T16:28:02.234Z,2.20
2023-05-09T16:30:28.892Z,1.80
2023-05-09T16:32:55.812Z,2.10
2023-05-09T16:35:22.773Z,2.00
2023-05-09T16:37:50.222Z,2.00
2023-05-09T16:40:18.188Z,2.10
2023-05-09T16:42:44.647Z,1.90
2023-05-09T16:45:11.015Z,2.10
2023-05-09T16:47:37.457Z,2.40
2023-05-09T16:50:04.130Z,2.20
2023-05-09T16:52:31.104Z,2.20
2023-05-09T16:54:58.679Z,2.20
2023-05-09T16:57:24.990Z,2.20
2023-05-09T16:59:53.165Z,2.40
2023-05-09T17:02:19.765Z,2.00
2023-05-09T17:04:46.564Z,2.00
2023-05-09T17:07:17.963Z,1.90
2023-05-09T17:09:52.111Z,2.10
2023-05-09T17:12:23.430Z,2.00
2023-05-09T17:14:50.585Z,2.30
2023-05-09T17:17:16.983Z,1.90
2023-05-09T17:19:43.442Z,2.40
2023-05-09T17:22:09.694Z,2.20
2023-05-09T17:24:36.102Z,2.10
2023-05-09T17:27:03.913Z,2.20
2023-05-09T17:29:30.406Z,2.20
2023-05-09T17:32:01.223Z,2.20
2023-05-09T17:34:28.029Z,2.20
2023-05-09T17:36:54.687Z,2.20
2023-05-09T17:39:22.540Z,2.40
2023-05-09T17:41:48.845Z,2.30
2023-05-09T17:44:15.170Z,2.40
2023-05-09T17:46:43.351Z,2.50
2023-05-09T17:49:10.610Z,2.40
2023-05-09T17:51:36.870Z,2.10
2023-05-09T17:54:04.764Z,2.40
2023-05-09T17:56:31.219Z,2.50
2023-05-09T17:58:58.673Z,2.60
2023-05-09T18:01:25.436Z,2.50
2023-05-09T18:03:52.153Z,2.60
2023-05-09T18:06:18.827Z,2.80
2023-05-09T18:08:45.161Z,3.00
2023-05-09T18:11:11.779Z,2.90
2023-05-09T18:13:38.108Z,3.10
2023-05-09T18:16:04.632Z,3.00
2023-05-09T18:18:31.780Z,2.90
2023-05-09T18:20:58.573Z,2.70
2023-05-09T18:23:25.374Z,3.10
2023-05-09T18:25:53.298Z,3.10
2023-05-09T18:28:26.897Z,3.00
2023-05-09T18:30:54.915Z,3.20
2023-05-09T18:33:25.589Z,3.10
2023-05-09T18:35:53.782Z,3.10
2023-05-09T18:38:20.559Z,3.50
2023-05-09T18:40:47.674Z,3.30
2023-05-09T18:43:15.800Z,3.40
2023-05-09T18:45:44.368Z,3.40
2023-05-09T18:48:10.723Z,3.30
2023-05-09T18:50:36.967Z,3.70
2023-05-09T18:53:03.442Z,3.50
2023-05-09T18:55:29.714Z,3.20
2023-05-09T18:57:56.146Z,3.70
2023-05-09T19:00:22.806Z,3.90
2023-05-09T19:02:50.149Z,3.70
2023-05-09T19:05:16.652Z,3.70
2023-05-09T19:07:42.885Z,3.50
2023-05-09T19:10:09.731Z,3.90
2023-05-09T19:12:36.142Z,4.20
2023-05-09T19:15:02.800Z,4.10
2023-05-09T19:17:29.209Z,3.90
2023-05-09T19:19:55.467Z,4.30
2023-05-09T19:22:22.093Z,4.60
2023-05-09T19:24:50.760Z,4.80
2023-05-09T19:27:18.652Z,4.90
2023-05-09T19:29:44.970Z,4.70
2023-05-09T19:32:11.200Z,5.00
2023-05-09T19:34:37.581Z,4.90
2023-05-09T19:37:03.910Z,4.60
2023-05-09T19:39:30.127Z,4.80
2023-05-09T19:41:58.296Z,4.50
2023-05-09T19:44:25.987Z,4.90
2023-05-09T19:46:52.352Z,4.60
2023-05-09T19:49:18.716Z,4.60
2023-05-09T19:51:44.977Z,4.50
2023-05-09T19:54:11.613Z,4.70
2023-05-09T19:56:37.891Z,4.90
2023-05-09T19:59:04.320Z,4.80
2023-05-09T20:01:30.533Z,5.10
2023-05-09T20:03:57.113Z,5.30
2023-05-09T20:06:24.806Z,5.30
2023-05-09T20:08:51.574Z,5.00
2023-05-09T20:11:18.152Z,4.90
2023-05-09T20:13:44.423Z,4.90
2023-05-09T20:16:10.767Z,5.20
2023-05-09T20:18:37.071Z,5.00
2023-05-09T20:24:05.077Z,5.30
2023-05-09T20:26:31.361Z,5.40
2023-05-09T20:29:04.149Z,5.60
2023-05-09T20:31:31.401Z,6.60
2023-05-09T20:33:58.184Z,7.00
2023-05-09T20:36:25.909Z,6.10
2023-05-09T20:38:52.190Z,5.90
2023-05-09T20:41:18.445Z,5.70
2023-05-09T20:43:45.078Z,5.20
2023-05-09T20:46:13.337Z,5.40
2023-05-09T20:48:39.638Z,5.40
2023-05-09T20:51:05.945Z,5.30
2023-05-09T20:53:34.165Z,6.00
2023-05-09T20:56:01.347Z,7.00
2023-05-09T20:58:33.651Z,8.10
2023-05-09T21:01:00.171Z,7.50
2023-05-09T21:03:26.734Z,7.50
2023-05-09T21:05:53.670Z,6.50
2023-05-09T21:08:20.349Z,6.20
2023-05-09T21:10:52.030Z,6.10
2023-05-09T21:13:18.318Z,6.10
2023-05-09T21:15:48.977Z,6.30
2023-05-09T21:18:15.230Z,6.50
2023-05-09T21:20:41.570Z,6.40
2023-05-09T21:23:07.834Z,6.60
2023-05-09T21:25:34.070Z,6.30
2023-05-09T21:28:00.420Z,6.00
2023-05-09T21:30:26.828Z,6.00
2023-05-09T21:32:53.177Z,6.50
2023-05-09T21:35:19.471Z,5.90
2023-05-09T21:37:45.955Z,6.20
2023-05-09T21:40:12.564Z,6.00
2023-05-09T21:42:40.476Z,6.70
2023-05-09T21:45:07.321Z,6.00
2023-05-09T21:47:33.693Z,6.30
2023-05-09T21:50:00.275Z,6.10
2023-05-09T21:52:26.539Z,6.10
2023-05-09T21:54:52.833Z,6.20
2023-05-09T21:57:19.132Z,6.40
2023-05-09T21:59:45.480Z,5.90
2023-05-09T22:02:11.831Z,6.10
2023-05-09T22:04:39.537Z,6.30
2023-05-09T22:07:05.922Z,6.10
2023-05-09T22:09:32.520Z,5.70
2023-05-09T22:11:58.825Z,5.90
2023-05-09T22:14:25.288Z,6.30
2023-05-09T22:16:51.604Z,6.30
2023-05-09T22:19:18.073Z,6.60
2023-05-09T22:21:44.336Z,6.00
2023-05-09T22:24:10.817Z,6.30
2023-05-09T22:26:37.103Z,6.00
2023-05-09T22:29:03.436Z,6.10
2023-05-09T22:31:29.842Z,5.80
2023-05-09T22:33:56.146Z,6.10
2023-05-09T22:36:22.409Z,6.00
2023-05-09T22:38:48.605Z,5.90
2023-05-09T22:41:14.965Z,6.20
2023-05-09T22:43:41.247Z,5.90
2023-05-09T22:46:08.128Z,6.00
2023-05-09T22:48:34.477Z,6.00
2023-05-09T22:51:01.387Z,6.20
2023-05-09T22:53:27.587Z,6.00
2023-05-09T22:55:54.213Z,5.70
2023-05-09T22:58:20.702Z,5.80
2023-05-09T23:00:47.046Z,5.80
2023-05-09T23:03:13.378Z,5.40
2023-05-09T23:05:39.732Z,5.60
2023-05-09T23:08:05.982Z,5.70
2023-05-09T23:10:32.215Z,5.40
2023-05-09T23:12:58.505Z,5.60
2023-05-09T23:15:24.877Z,5.90
2023-05-09T23:17:51.375Z,5.60
2023-05-09T23:20:17.952Z,5.20
2023-05-09T23:22:44.465Z,5.60
2023-05-09T23:25:10.815Z,5.50
2023-05-09T23:27:39.840Z,5.60
2023-05-09T23:30:09.931Z,5.40
2023-05-09T23:32:37.110Z,5.70
2023-05-09T23:35:04.204Z,5.60
2023-05-09T23:37:30.661Z,5.40
2023-05-09T23:39:57.683Z,5.70
2023-05-09T23:42:23.997Z,5.70
2023-05-09T23:44:50.198Z,5.60
2023-05-09T23:47:16.471Z,5.50
2023-05-09T23:49:42.752Z,5.60
2023-05-09T23:52:09.335Z,5.30
2023-05-09T23:54:35.568Z,5.30
2023-05-09T23:57:01.827Z,5.20
2023-05-09T23:59:28.009Z,5.60
